sensor_id;sensor_type;location;lat;lon;timestamp;pressure;altitude;pressure_sealevel;temperature;humidity
21182;BME280;10749;46.296;7.524;2023-02-04T00:01:23;96319.72;;;5.57;44.78
21182;BME280;10749;46.296;7.524;2023-02-04T00:03:49;96319.22;;;5.52;45.05
21182;BME280;10749;46.296;7.524;2023-02-04T00:06:14;96318.72;;;5.47;44.73
21182;BME280;10749;46.296;7.524;2023-02-04T00:08:40;96315.59;;;5.42;44.91
21182;BME280;10749;46.296;7.524;2023-02-04T00:11:05;96319.19;;;5.41;45.20
21182;BME280;10749;46.296;7.524;2023-02-04T00:13:30;96320.13;;;5.40;45.19
21182;BME280;10749;46.296;7.524;2023-02-04T00:15:56;96325.38;;;5.40;44.90
21182;BME280;10749;46.296;7.524;2023-02-04T00:18:21;96317.50;;;5.40;45.31
21182;BME280;10749;46.296;7.524;2023-02-04T00:20:46;96319.38;;;5.38;45.21
21182;BME280;10749;46.296;7.524;2023-02-04T00:23:12;96312.69;;;5.34;44.84
21182;BME280;10749;46.296;7.524;2023-02-04T00:25:37;96312.91;;;5.31;45.33
21182;BME280;10749;46.296;7.524;2023-02-04T00:28:02;96322.38;;;5.34;45.46
21182;BME280;10749;46.296;7.524;2023-02-04T00:30:28;96322.00;;;5.38;45.55
21182;BME280;10749;46.296;7.524;2023-02-04T00:32:53;96314.13;;;5.38;45.53
21182;BME280;10749;46.296;7.524;2023-02-04T00:35:21;96312.47;;;5.37;45.57
21182;BME280;10749;46.296;7.524;2023-02-04T00:37:47;96311.03;;;5.33;45.80
21182;BME280;10749;46.296;7.524;2023-02-04T00:40:13;96308.78;;;5.40;45.79
21182;BME280;10749;46.296;7.524;2023-02-04T00:42:38;96304.13;;;5.43;45.85
21182;BME280;10749;46.296;7.524;2023-02-04T00:45:04;96303.28;;;5.43;45.23
21182;BME280;10749;46.296;7.524;2023-02-04T00:47:29;96296.47;;;5.40;45.36
21182;BME280;10749;46.296;7.524;2023-02-04T00:49:54;96290.50;;;5.38;45.10
21182;BME280;10749;46.296;7.524;2023-02-04T00:52:19;96294.03;;;5.26;45.36
21182;BME280;10749;46.296;7.524;2023-02-04T00:54:45;96281.88;;;5.25;45.49
21182;BME280;10749;46.296;7.524;2023-02-04T00:57:10;96295.47;;;5.30;45.85
21182;BME280;10749;46.296;7.524;2023-02-04T00:59:35;96303.63;;;5.38;45.51
21182;BME280;10749;46.296;7.524;2023-02-04T01:02:01;96299.94;;;5.41;45.51
21182;BME280;10749;46.296;7.524;2023-02-04T01:04:26;96293.84;;;5.40;45.64
21182;BME280;10749;46.296;7.524;2023-02-04T01:06:52;96291.97;;;5.42;45.91
21182;BME280;10749;46.296;7.524;2023-02-04T01:09:18;96296.06;;;5.46;45.98
21182;BME280;10749;46.296;7.524;2023-02-04T01:11:43;96294.38;;;5.45;46.02
21182;BME280;10749;46.296;7.524;2023-02-04T01:14:08;96296.84;;;5.47;45.61
21182;BME280;10749;46.296;7.524;2023-02-04T01:16:33;96295.06;;;5.47;45.76
21182;BME280;10749;46.296;7.524;2023-02-04T01:18:59;96293.69;;;5.54;45.75
21182;BME280;10749;46.296;7.524;2023-02-04T01:21:24;96291.41;;;5.50;45.89
21182;BME280;10749;46.296;7.524;2023-02-04T01:23:50;96282.06;;;5.46;45.44
21182;BME280;10749;46.296;7.524;2023-02-04T01:26:17;96290.28;;;5.41;45.18
21182;BME280;10749;46.296;7.524;2023-02-04T01:28:42;96286.22;;;5.37;45.16
21182;BME280;10749;46.296;7.524;2023-02-04T01:31:07;96269.22;;;5.30;45.08
21182;BME280;10749;46.296;7.524;2023-02-04T01:33:33;96270.28;;;5.28;45.29
21182;BME280;10749;46.296;7.524;2023-02-04T01:35:58;96260.63;;;5.28;45.53
21182;BME280;10749;46.296;7.524;2023-02-04T01:38:23;96269.03;;;5.33;45.38
21182;BME280;10749;46.296;7.524;2023-02-04T01:40:48;96266.66;;;5.41;45.49
21182;BME280;10749;46.296;7.524;2023-02-04T01:43:14;96262.84;;;5.45;45.83
21182;BME280;10749;46.296;7.524;2023-02-04T01:45:42;96252.84;;;5.50;46.34
21182;BME280;10749;46.296;7.524;2023-02-04T01:48:07;96258.47;;;5.57;46.08
21182;BME280;10749;46.296;7.524;2023-02-04T01:50:32;96260.84;;;5.60;45.97
21182;BME280;10749;46.296;7.524;2023-02-04T01:52:58;96261.09;;;5.57;45.75
21182;BME280;10749;46.296;7.524;2023-02-04T01:55:27;96252.00;;;5.50;46.31
21182;BME280;10749;46.296;7.524;2023-02-04T01:57:53;96239.47;;;5.53;46.05
21182;BME280;10749;46.296;7.524;2023-02-04T02:00:28;96236.13;;;5.51;46.20
21182;BME280;10749;46.296;7.524;2023-02-04T02:02:54;96225.84;;;5.48;46.73
21182;BME280;10749;46.296;7.524;2023-02-04T02:05:23;96223.03;;;5.63;46.23
21182;BME280;10749;46.296;7.524;2023-02-04T02:07:51;96228.56;;;5.82;46.56
21182;BME280;10749;46.296;7.524;2023-02-04T02:10:18;96222.97;;;5.86;46.36
21182;BME280;10749;46.296;7.524;2023-02-04T02:12:44;96210.91;;;5.84;46.65
21182;BME280;10749;46.296;7.524;2023-02-04T02:15:12;96212.78;;;5.82;46.39
21182;BME280;10749;46.296;7.524;2023-02-04T02:17:38;96213.72;;;5.70;46.03
21182;BME280;10749;46.296;7.524;2023-02-04T02:22:57;96196.84;;;5.50;46.21
21182;BME280;10749;46.296;7.524;2023-02-04T02:25:24;96192.91;;;5.44;46.55
21182;BME280;10749;46.296;7.524;2023-02-04T02:27:50;96197.22;;;5.45;46.54
21182;BME280;10749;46.296;7.524;2023-02-04T02:30:16;96187.41;;;5.47;46.45
21182;BME280;10749;46.296;7.524;2023-02-04T02:32:43;96182.28;;;5.46;46.41
21182;BME280;10749;46.296;7.524;2023-02-04T02:35:09;96177.97;;;5.45;46.41
21182;BME280;10749;46.296;7.524;2023-02-04T02:37:35;96183.13;;;5.46;46.61
21182;BME280;10749;46.296;7.524;2023-02-04T02:40:00;96174.28;;;5.47;46.43
21182;BME280;10749;46.296;7.524;2023-02-04T02:42:26;96174.78;;;5.52;46.92
21182;BME280;10749;46.296;7.524;2023-02-04T02:44:51;96162.13;;;5.57;46.79
21182;BME280;10749;46.296;7.524;2023-02-04T02:47:20;96162.13;;;5.57;46.80
21182;BME280;10749;46.296;7.524;2023-02-04T02:49:49;96152.81;;;5.53;46.84
21182;BME280;10749;46.296;7.524;2023-02-04T02:52:15;96144.19;;;5.51;47.11
21182;BME280;10749;46.296;7.524;2023-02-04T02:54:41;96150.19;;;5.53;46.56
21182;BME280;10749;46.296;7.524;2023-02-04T02:57:13;96147.66;;;5.52;46.03
21182;BME280;10749;46.296;7.524;2023-02-04T02:59:39;96155.53;;;5.52;45.98
21182;BME280;10749;46.296;7.524;2023-02-04T03:02:05;96144.94;;;5.53;46.08
21182;BME280;10749;46.296;7.524;2023-02-04T03:04:33;96143.25;;;5.52;46.94
21182;BME280;10749;46.296;7.524;2023-02-04T03:07:00;96146.13;;;5.61;46.09
21182;BME280;10749;46.296;7.524;2023-02-04T03:09:26;96143.16;;;5.65;46.00
21182;BME280;10749;46.296;7.524;2023-02-04T03:11:52;96139.34;;;5.69;46.50
21182;BME280;10749;46.296;7.524;2023-02-04T03:14:17;96138.03;;;5.75;46.60
21182;BME280;10749;46.296;7.524;2023-02-04T03:16:43;96146.16;;;5.83;46.24
21182;BME280;10749;46.296;7.524;2023-02-04T03:19:09;96149.31;;;5.88;46.09
21182;BME280;10749;46.296;7.524;2023-02-04T03:21:35;96151.69;;;5.91;45.85
21182;BME280;10749;46.296;7.524;2023-02-04T03:24:01;96134.72;;;5.95;46.19
21182;BME280;10749;46.296;7.524;2023-02-04T03:26:26;96130.31;;;5.95;46.25
21182;BME280;10749;46.296;7.524;2023-02-04T03:28:53;96112.25;;;5.91;46.63
21182;BME280;10749;46.296;7.524;2023-02-04T03:31:18;96137.13;;;5.87;46.77
21182;BME280;10749;46.296;7.524;2023-02-04T03:33:44;96136.88;;;5.90;46.64
21182;BME280;10749;46.296;7.524;2023-02-04T03:36:09;96124.56;;;5.90;46.48
21182;BME280;10749;46.296;7.524;2023-02-04T03:38:34;96128.25;;;5.99;46.35
21182;BME280;10749;46.296;7.524;2023-02-04T03:41:00;96135.66;;;6.05;46.81
21182;BME280;10749;46.296;7.524;2023-02-04T03:43:25;96136.13;;;6.10;46.79
21182;BME280;10749;46.296;7.524;2023-02-04T03:45:50;96133.25;;;6.13;47.05
21182;BME280;10749;46.296;7.524;2023-02-04T03:48:16;96124.41;;;6.14;47.13
21182;BME280;10749;46.296;7.524;2023-02-04T03:50:41;96122.53;;;6.16;47.41
21182;BME280;10749;46.296;7.524;2023-02-04T03:53:07;96126.06;;;6.26;47.18
21182;BME280;10749;46.296;7.524;2023-02-04T03:55:32;96119.59;;;6.30;46.99
21182;BME280;10749;46.296;7.524;2023-02-04T03:57:57;96118.19;;;6.26;47.32
21182;BME280;10749;46.296;7.524;2023-02-04T04:00:23;96126.44;;;6.33;47.11
21182;BME280;10749;46.296;7.524;2023-02-04T04:02:48;96118.53;;;6.33;47.04
21182;BME280;10749;46.296;7.524;2023-02-04T04:05:14;96115.44;;;6.28;47.19
21182;BME280;10749;46.296;7.524;2023-02-04T04:07:39;96137.31;;;6.28;46.43
21182;BME280;10749;46.296;7.524;2023-02-04T04:10:04;96135.97;;;6.34;46.64
21182;BME280;10749;46.296;7.524;2023-02-04T04:12:30;96128.91;;;6.34;47.12
21182;BME280;10749;46.296;7.524;2023-02-04T04:14:55;96102.41;;;6.37;47.34
21182;BME280;10749;46.296;7.524;2023-02-04T04:17:20;96111.47;;;6.44;47.17
21182;BME280;10749;46.296;7.524;2023-02-04T04:19:46;96122.19;;;6.53;46.94
21182;BME280;10749;46.296;7.524;2023-02-04T04:22:11;96114.56;;;6.49;46.91
21182;BME280;10749;46.296;7.524;2023-02-04T04:24:36;96109.28;;;6.49;47.13
21182;BME280;10749;46.296;7.524;2023-02-04T04:27:02;96110.94;;;6.50;46.89
21182;BME280;10749;46.296;7.524;2023-02-04T04:29:27;96103.56;;;6.44;46.93
21182;BME280;10749;46.296;7.524;2023-02-04T04:31:52;96112.41;;;6.43;47.01
21182;BME280;10749;46.296;7.524;2023-02-04T04:34:17;96101.19;;;6.41;46.98
21182;BME280;10749;46.296;7.524;2023-02-04T04:36:43;96102.84;;;6.42;46.92
21182;BME280;10749;46.296;7.524;2023-02-04T04:39:08;96090.91;;;6.38;47.07
21182;BME280;10749;46.296;7.524;2023-02-04T04:41:33;96088.91;;;6.31;46.97
21182;BME280;10749;46.296;7.524;2023-02-04T04:43:59;96095.72;;;6.22;46.82
21182;BME280;10749;46.296;7.524;2023-02-04T04:46:24;96084.03;;;6.15;47.07
21182;BME280;10749;46.296;7.524;2023-02-04T04:48:49;96086.16;;;6.21;47.15
21182;BME280;10749;46.296;7.524;2023-02-04T04:51:14;96095.47;;;6.25;46.90
21182;BME280;10749;46.296;7.524;2023-02-04T04:53:40;96095.47;;;6.25;47.20
21182;BME280;10749;46.296;7.524;2023-02-04T04:56:05;96087.56;;;6.25;47.40
21182;BME280;10749;46.296;7.524;2023-02-04T04:58:30;96099.06;;;6.24;46.89
21182;BME280;10749;46.296;7.524;2023-02-04T05:00:56;96092.84;;;6.25;47.01
21182;BME280;10749;46.296;7.524;2023-02-04T05:03:21;96091.88;;;6.26;47.27
21182;BME280;10749;46.296;7.524;2023-02-04T05:05:46;96091.66;;;6.29;47.20
21182;BME280;10749;46.296;7.524;2023-02-04T05:08:11;96091.41;;;6.32;46.81
21182;BME280;10749;46.296;7.524;2023-02-04T05:10:41;96083.03;;;6.27;47.22
21182;BME280;10749;46.296;7.524;2023-02-04T05:13:07;96084.16;;;6.25;47.14
21182;BME280;10749;46.296;7.524;2023-02-04T05:15:32;96092.41;;;6.20;47.51
21182;BME280;10749;46.296;7.524;2023-02-04T05:17:58;96103.13;;;6.17;47.17
21182;BME280;10749;46.296;7.524;2023-02-04T05:20:24;96088.44;;;6.15;46.82
21182;BME280;10749;46.296;7.524;2023-02-04T05:22:49;96089.53;;;6.12;46.88
21182;BME280;10749;46.296;7.524;2023-02-04T05:25:15;96087.88;;;6.11;47.05
21182;BME280;10749;46.296;7.524;2023-02-04T05:27:43;96083.69;;;6.09;47.29
21182;BME280;10749;46.296;7.524;2023-02-04T05:30:10;96085.13;;;6.13;47.36
21182;BME280;10749;46.296;7.524;2023-02-04T05:32:36;96094.56;;;6.15;47.40
21182;BME280;10749;46.296;7.524;2023-02-04T05:35:01;96090.59;;;6.10;47.06
21182;BME280;10749;46.296;7.524;2023-02-04T05:37:26;96095.28;;;6.06;47.04
21182;BME280;10749;46.296;7.524;2023-02-04T05:39:52;96092.53;;;6.08;47.39
21182;BME280;10749;46.296;7.524;2023-02-04T05:42:17;96089.78;;;6.09;47.41
21182;BME280;10749;46.296;7.524;2023-02-04T05:44:42;96112.84;;;6.17;47.46
21182;BME280;10749;46.296;7.524;2023-02-04T05:47:08;96104.81;;;6.18;47.48
21182;BME280;10749;46.296;7.524;2023-02-04T05:49:33;96091.81;;;6.17;47.67
21182;BME280;10749;46.296;7.524;2023-02-04T05:51:58;96094.88;;;6.22;47.08
21182;BME280;10749;46.296;7.524;2023-02-04T05:54:24;96096.94;;;6.18;47.10
21182;BME280;10749;46.296;7.524;2023-02-04T05:56:50;96089.28;;;6.15;47.19
21182;BME280;10749;46.296;7.524;2023-02-04T05:59:16;96093.72;;;6.15;47.00
21182;BME280;10749;46.296;7.524;2023-02-04T06:01:41;96095.03;;;6.09;46.84
21182;BME280;10749;46.296;7.524;2023-02-04T06:04:06;96096.22;;;6.05;47.19
21182;BME280;10749;46.296;7.524;2023-02-04T06:06:31;96099.09;;;6.02;47.57
21182;BME280;10749;46.296;7.524;2023-02-04T06:08:57;96087.03;;;6.11;47.50
21182;BME280;10749;46.296;7.524;2023-02-04T06:11:22;96092.50;;;6.19;47.77
21182;BME280;10749;46.296;7.524;2023-02-04T06:13:47;96093.81;;;6.24;47.19
21182;BME280;10749;46.296;7.524;2023-02-04T06:16:13;96082.78;;;6.30;47.29
21182;BME280;10749;46.296;7.524;2023-02-04T06:18:38;96076.53;;;6.42;47.49
21182;BME280;10749;46.296;7.524;2023-02-04T06:21:03;96094.69;;;6.57;47.44
21182;BME280;10749;46.296;7.524;2023-02-04T06:23:30;96090.78;;;6.72;47.76
21182;BME280;10749;46.296;7.524;2023-02-04T06:25:55;96114.25;;;6.75;47.69
21182;BME280;10749;46.296;7.524;2023-02-04T06:28:20;96112.34;;;6.66;47.70
21182;BME280;10749;46.296;7.524;2023-02-04T06:30:46;96119.06;;;6.59;47.83
21182;BME280;10749;46.296;7.524;2023-02-04T06:33:11;96119.81;;;6.49;47.19
21182;BME280;10749;46.296;7.524;2023-02-04T06:35:36;96112.44;;;6.32;47.42
21182;BME280;10749;46.296;7.524;2023-02-04T06:38:02;96120.59;;;6.18;47.09
21182;BME280;10749;46.296;7.524;2023-02-04T06:40:27;96105.53;;;6.09;47.13
21182;BME280;10749;46.296;7.524;2023-02-04T06:42:52;96113.56;;;6.08;47.05
21182;BME280;10749;46.296;7.524;2023-02-04T06:45:17;96115.25;;;6.09;47.42
21182;BME280;10749;46.296;7.524;2023-02-04T06:47:43;96122.72;;;6.13;47.53
21182;BME280;10749;46.296;7.524;2023-02-04T06:50:08;96118.44;;;6.23;47.61
21182;BME280;10749;46.296;7.524;2023-02-04T06:52:34;96108.25;;;6.30;47.79
21182;BME280;10749;46.296;7.524;2023-02-04T06:55:00;96126.78;;;6.28;48.26
21182;BME280;10749;46.296;7.524;2023-02-04T06:57:25;96131.53;;;6.34;47.82
21182;BME280;10749;46.296;7.524;2023-02-04T06:59:50;96121.03;;;6.34;47.77
21182;BME280;10749;46.296;7.524;2023-02-04T07:02:15;96117.69;;;6.32;48.07
21182;BME280;10749;46.296;7.524;2023-02-04T07:04:41;96121.53;;;6.28;48.29
21182;BME280;10749;46.296;7.524;2023-02-04T07:07:08;96128.09;;;6.34;47.62
21182;BME280;10749;46.296;7.524;2023-02-04T07:09:34;96139.00;;;6.29;47.34
21182;BME280;10749;46.296;7.524;2023-02-04T07:11:59;96142.56;;;6.28;47.77
21182;BME280;10749;46.296;7.524;2023-02-04T07:14:24;96152.84;;;6.31;47.87
21182;BME280;10749;46.296;7.524;2023-02-04T07:16:49;96149.97;;;6.34;48.07
21182;BME280;10749;46.296;7.524;2023-02-04T07:19:15;96169.78;;;6.38;48.17
21182;BME280;10749;46.296;7.524;2023-02-04T07:21:40;96164.31;;;6.41;47.95
21182;BME280;10749;46.296;7.524;2023-02-04T07:24:05;96174.06;;;6.50;48.15
21182;BME280;10749;46.296;7.524;2023-02-04T07:26:31;96172.44;;;6.49;47.80
21182;BME280;10749;46.296;7.524;2023-02-04T07:28:56;96153.03;;;6.50;47.78
21182;BME280;10749;46.296;7.524;2023-02-04T07:31:21;96164.38;;;6.51;47.80
21182;BME280;10749;46.296;7.524;2023-02-04T07:33:47;96174.81;;;6.53;47.79
21182;BME280;10749;46.296;7.524;2023-02-04T07:36:12;96171.91;;;6.56;47.97
21182;BME280;10749;46.296;7.524;2023-02-04T07:38:37;96168.34;;;6.57;48.15
21182;BME280;10749;46.296;7.524;2023-02-04T07:41:03;96177.66;;;6.61;47.99
21182;BME280;10749;46.296;7.524;2023-02-04T07:43:28;96188.66;;;6.66;47.80
21182;BME280;10749;46.296;7.524;2023-02-04T07:45:53;96176.19;;;6.68;48.05
21182;BME280;10749;46.296;7.524;2023-02-04T07:48:19;96190.53;;;6.75;47.88
21182;BME280;10749;46.296;7.524;2023-02-04T07:50:44;96193.66;;;6.69;48.27
21182;BME280;10749;46.296;7.524;2023-02-04T07:53:09;96194.13;;;6.74;48.21
21182;BME280;10749;46.296;7.524;2023-02-04T07:55:35;96205.59;;;6.73;48.30
21182;BME280;10749;46.296;7.524;2023-02-04T07:58:00;96210.63;;;6.76;48.26
21182;BME280;10749;46.296;7.524;2023-02-04T08:00:25;96212.03;;;6.80;48.19
21182;BME280;10749;46.296;7.524;2023-02-04T08:02:50;96203.91;;;6.83;48.23
21182;BME280;10749;46.296;7.524;2023-02-04T08:05:16;96205.56;;;6.84;48.27
21182;BME280;10749;46.296;7.524;2023-02-04T08:07:41;96203.66;;;6.86;48.54
21182;BME280;10749;46.296;7.524;2023-02-04T08:10:08;96211.56;;;6.86;48.18
21182;BME280;10749;46.296;7.524;2023-02-04T08:12:34;96211.88;;;6.92;48.08
21182;BME280;10749;46.296;7.524;2023-02-04T08:15:00;96209.13;;;6.94;48.16
21182;BME280;10749;46.296;7.524;2023-02-04T08:17:26;96215.81;;;6.98;48.44
21182;BME280;10749;46.296;7.524;2023-02-04T08:19:51;96211.16;;;7.02;48.55
21182;BME280;10749;46.296;7.524;2023-02-04T08:22:16;96226.94;;;7.02;48.16
21182;BME280;10749;46.296;7.524;2023-02-04T08:24:42;96220.00;;;7.01;48.13
21182;BME280;10749;46.296;7.524;2023-02-04T08:27:07;96216.53;;;7.00;48.23
21182;BME280;10749;46.296;7.524;2023-02-04T08:29:32;96221.69;;;7.02;48.51
21182;BME280;10749;46.296;7.524;2023-02-04T08:31:57;96224.78;;;7.07;48.24
21182;BME280;10749;46.296;7.524;2023-02-04T08:34:23;96219.38;;;7.08;48.26
21182;BME280;10749;46.296;7.524;2023-02-04T08:36:48;96219.84;;;7.13;48.07
21182;BME280;10749;46.296;7.524;2023-02-04T08:39:13;96222.09;;;7.18;48.43
21182;BME280;10749;46.296;7.524;2023-02-04T08:41:38;96224.63;;;7.19;48.37
21182;BME280;10749;46.296;7.524;2023-02-04T08:44:04;96224.63;;;7.19;48.56
21182;BME280;10749;46.296;7.524;2023-02-04T08:46:29;96238.25;;;7.24;48.76
21182;BME280;10749;46.296;7.524;2023-02-04T08:48:54;96235.34;;;7.27;48.40
21182;BME280;10749;46.296;7.524;2023-02-04T08:51:20;96237.84;;;7.29;48.75
21182;BME280;10749;46.296;7.524;2023-02-04T08:53:45;96231.13;;;7.36;48.44
21182;BME280;10749;46.296;7.524;2023-02-04T08:56:12;96230.19;;;7.37;48.50
21182;BME280;10749;46.296;7.524;2023-02-04T08:58:41;96231.72;;;7.39;48.24
21182;BME280;10749;46.296;7.524;2023-02-04T09:01:06;96225.88;;;7.36;48.45
21182;BME280;10749;46.296;7.524;2023-02-04T09:03:32;96231.44;;;7.42;48.37
21182;BME280;10749;46.296;7.524;2023-02-04T09:05:57;96225.47;;;7.40;48.29
21182;BME280;10749;46.296;7.524;2023-02-04T09:08:22;96225.59;;;7.39;48.41
21182;BME280;10749;46.296;7.524;2023-02-04T09:10:48;96233.13;;;7.43;48.45
21182;BME280;10749;46.296;7.524;2023-02-04T09:13:13;96232.22;;;7.54;48.74
21182;BME280;10749;46.296;7.524;2023-02-04T09:15:38;96237.69;;;7.62;48.66
21182;BME280;10749;46.296;7.524;2023-02-04T09:18:03;96235.47;;;7.58;48.27
21182;BME280;10749;46.296;7.524;2023-02-04T09:20:38;96234.94;;;7.64;48.84
21182;BME280;10749;46.296;7.524;2023-02-04T09:23:03;96234.28;;;7.71;48.80
21182;BME280;10749;46.296;7.524;2023-02-04T09:25:31;96240.59;;;7.80;48.99
21182;BME280;10749;46.296;7.524;2023-02-04T09:27:56;96245.38;;;7.86;49.05
21182;BME280;10749;46.296;7.524;2023-02-04T09:30:21;96238.72;;;7.92;49.15
21182;BME280;10749;46.296;7.524;2023-02-04T09:32:46;96243.59;;;7.96;49.19
21182;BME280;10749;46.296;7.524;2023-02-04T09:35:12;96249.72;;;7.97;49.33
21182;BME280;10749;46.296;7.524;2023-02-04T09:37:37;96243.56;;;8.07;49.35
21182;BME280;10749;46.296;7.524;2023-02-04T09:40:02;96254.41;;;8.14;49.26
21182;BME280;10749;46.296;7.524;2023-02-04T09:42:28;96248.81;;;8.07;48.80
21182;BME280;10749;46.296;7.524;2023-02-04T09:44:53;96241.81;;;7.97;49.03
21182;BME280;10749;46.296;7.524;2023-02-04T09:47:21;96260.00;;;8.00;48.82
21182;BME280;10749;46.296;7.524;2023-02-04T09:49:48;96249.63;;;8.08;49.24
21182;BME280;10749;46.296;7.524;2023-02-04T09:52:15;96261.94;;;8.18;49.25
21182;BME280;10749;46.296;7.524;2023-02-04T09:54:43;96259.16;;;8.20;48.89
21182;BME280;10749;46.296;7.524;2023-02-04T09:57:14;96268.44;;;8.14;49.32
21182;BME280;10749;46.296;7.524;2023-02-04T09:59:42;96260.56;;;8.24;49.25
21182;BME280;10749;46.296;7.524;2023-02-04T10:02:23;96252.78;;;8.22;49.43
21182;BME280;10749;46.296;7.524;2023-02-04T10:04:50;96258.00;;;8.33;49.45
21182;BME280;10749;46.296;7.524;2023-02-04T10:07:17;96249.25;;;8.33;49.34
21182;BME280;10749;46.296;7.524;2023-02-04T10:09:46;96250.94;;;8.13;49.04
21182;BME280;10749;46.296;7.524;2023-02-04T10:12:12;96251.88;;;8.12;49.28
21182;BME280;10749;46.296;7.524;2023-02-04T10:14:38;96261.94;;;8.18;49.09
21182;BME280;10749;46.296;7.524;2023-02-04T10:17:04;96261.66;;;8.21;49.53
21182;BME280;10749;46.296;7.524;2023-02-04T10:19:30;96254.19;;;8.26;49.45
21182;BME280;10749;46.296;7.524;2023-02-04T10:21:55;96264.56;;;8.39;49.68
21182;BME280;10749;46.296;7.524;2023-02-04T10:24:23;96268.22;;;8.48;49.31
21182;BME280;10749;46.296;7.524;2023-02-04T10:27:08;96259.41;;;8.38;49.23
21182;BME280;10749;46.296;7.524;2023-02-04T10:29:34;96261.75;;;8.31;49.52
21182;BME280;10749;46.296;7.524;2023-02-04T10:31:59;96267.97;;;8.30;49.14
21182;BME280;10749;46.296;7.524;2023-02-04T10:34:37;96249.75;;;8.27;49.18
21182;BME280;10749;46.296;7.524;2023-02-04T10:37:19;96249.81;;;8.37;49.45
21182;BME280;10749;46.296;7.524;2023-02-04T10:39:44;96245.94;;;8.41;49.24
21182;BME280;10749;46.296;7.524;2023-02-04T10:42:20;96239.53;;;8.33;49.31
21182;BME280;10749;46.296;7.524;2023-02-04T10:44:46;96246.22;;;8.38;49.30
21182;BME280;10749;46.296;7.524;2023-02-04T10:47:22;96247.91;;;8.39;49.60
21182;BME280;10749;46.296;7.524;2023-02-04T10:50:02;96245.94;;;8.41;49.24
21182;BME280;10749;46.296;7.524;2023-02-04T10:52:37;96241.56;;;8.51;49.75
21182;BME280;10749;46.296;7.524;2023-02-04T10:55:05;96229.09;;;8.62;49.82
21182;BME280;10749;46.296;7.524;2023-02-04T10:57:34;96229.97;;;8.72;50.07
21182;BME280;10749;46.296;7.524;2023-02-04T11:00:04;96226.94;;;8.77;49.82
21182;BME280;10749;46.296;7.524;2023-02-04T11:05:22;96230.53;;;8.76;49.98
21182;BME280;10749;46.296;7.524;2023-02-04T11:07:48;96230.97;;;8.91;49.82
21182;BME280;10749;46.296;7.524;2023-02-04T11:10:27;96216.41;;;8.96;49.91
21182;BME280;10749;46.296;7.524;2023-02-04T11:16:06;96223.63;;;8.94;49.54
21182;BME280;10749;46.296;7.524;2023-02-04T11:18:48;96215.69;;;8.85;49.63
21182;BME280;10749;46.296;7.524;2023-02-04T11:39:39;96190.06;;;10.47;50.57
21182;BME280;10749;46.296;7.524;2023-02-04T11:42:29;96188.59;;;10.62;50.33
21182;BME280;10749;46.296;7.524;2023-02-04T11:45:11;96188.19;;;10.84;50.39
21182;BME280;10749;46.296;7.524;2023-02-04T11:47:38;96189.78;;;10.95;49.95
21182;BME280;10749;46.296;7.524;2023-02-04T11:50:21;96188.00;;;11.13;49.89
21182;BME280;10749;46.296;7.524;2023-02-04T11:52:49;96189.22;;;11.36;50.51
21182;BME280;10749;46.296;7.524;2023-02-04T11:55:14;96172.09;;;11.48;50.07
21182;BME280;10749;46.296;7.524;2023-02-04T11:57:42;96173.13;;;11.73;50.50
21182;BME280;10749;46.296;7.524;2023-02-04T12:00:14;96177.91;;;11.87;50.23
21182;BME280;10749;46.296;7.524;2023-02-04T12:03:05;96170.78;;;12.22;50.27
21182;BME280;10749;46.296;7.524;2023-02-04T12:05:44;96163.19;;;12.27;49.91
21182;BME280;10749;46.296;7.524;2023-02-04T12:08:24;96168.97;;;12.56;50.20
21182;BME280;10749;46.296;7.524;2023-02-04T12:11:11;96166.66;;;12.95;50.28
21182;BME280;10749;46.296;7.524;2023-02-04T12:13:52;96148.22;;;13.02;49.74
21182;BME280;10749;46.296;7.524;2023-02-04T12:16:18;96140.00;;;13.29;49.69
21182;BME280;10749;46.296;7.524;2023-02-04T12:18:43;96135.00;;;13.58;49.54
21182;BME280;10749;46.296;7.524;2023-02-04T12:21:09;96138.31;;;13.84;49.81
21182;BME280;10749;46.296;7.524;2023-02-04T12:23:34;96130.97;;;14.03;49.38
21182;BME280;10749;46.296;7.524;2023-02-04T12:25:59;96125.56;;;14.27;49.26
21182;BME280;10749;46.296;7.524;2023-02-04T12:28:25;96130.03;;;14.43;49.28
21182;BME280;10749;46.296;7.524;2023-02-04T12:30:52;96123.38;;;14.47;48.76
21182;BME280;10749;46.296;7.524;2023-02-04T12:33:17;96138.72;;;14.45;48.46
21182;BME280;10749;46.296;7.524;2023-02-04T12:35:42;96131.75;;;14.66;48.59
21182;BME280;10749;46.296;7.524;2023-02-04T12:38:08;96128.59;;;14.71;48.51
21182;BME280;10749;46.296;7.524;2023-02-04T12:40:34;96128.03;;;14.84;48.21
21182;BME280;10749;46.296;7.524;2023-02-04T12:42:59;96130.06;;;15.04;47.98
21182;BME280;10749;46.296;7.524;2023-02-04T12:45:25;96121.19;;;15.12;48.11
21182;BME280;10749;46.296;7.524;2023-02-04T12:47:50;96130.41;;;15.32;47.96
21182;BME280;10749;46.296;7.524;2023-02-04T12:50:17;96131.03;;;15.34;47.38
21182;BME280;10749;46.296;7.524;2023-02-04T12:52:48;96128.06;;;15.29;47.10
21182;BME280;10749;46.296;7.524;2023-02-04T12:55:13;96134.84;;;15.40;46.97
21182;BME280;10749;46.296;7.524;2023-02-04T12:57:38;96137.31;;;15.41;47.26
21182;BME280;10749;46.296;7.524;2023-02-04T13:00:04;96129.38;;;15.33;47.32
21182;BME280;10749;46.296;7.524;2023-02-04T13:02:29;96137.81;;;15.22;47.15
21182;BME280;10749;46.296;7.524;2023-02-04T13:04:55;96120.97;;;15.21;47.37
21182;BME280;10749;46.296;7.524;2023-02-04T13:07:22;96126.03;;;14.86;45.07
21182;BME280;10749;46.296;7.524;2023-02-04T13:09:47;96119.22;;;14.75;46.23
21182;BME280;10749;46.296;7.524;2023-02-04T13:12:13;96125.00;;;15.17;46.72
21182;BME280;10749;46.296;7.524;2023-02-04T13:14:41;96116.69;;;14.90;46.55
21182;BME280;10749;46.296;7.524;2023-02-04T13:17:07;96108.28;;;15.01;46.53
21182;BME280;10749;46.296;7.524;2023-02-04T13:19:33;96108.56;;;15.06;46.28
21182;BME280;10749;46.296;7.524;2023-02-04T13:21:59;96111.78;;;15.24;46.23
21182;BME280;10749;46.296;7.524;2023-02-04T13:24:25;96104.84;;;15.15;46.04
21182;BME280;10749;46.296;7.524;2023-02-04T13:26:50;96100.72;;;15.35;46.12
21182;BME280;10749;46.296;7.524;2023-02-04T13:29:16;96098.19;;;15.34;45.98
21182;BME280;10749;46.296;7.524;2023-02-04T13:31:41;96095.06;;;15.30;45.80
21182;BME280;10749;46.296;7.524;2023-02-04T13:34:06;96100.81;;;15.19;45.94